createdAt,value
2023-02-05T00:01:23.168Z,4.99
2023-02-05T00:03:50.008Z,4.97
2023-02-05T00:06:16.691Z,4.96
2023-02-05T00:08:43.233Z,4.96
2023-02-05T00:11:09.884Z,4.95
2023-02-05T00:13:38.339Z,4.93
2023-02-05T00:16:16.472Z,4.96
2023-02-05T00:18:43.567Z,4.96
2023-02-05T00:21:11.120Z,4.95
2023-02-05T00:23:38.162Z,4.93
2023-02-05T00:26:05.750Z,4.90
2023-02-05T00:28:33.935Z,4.88
2023-02-05T00:31:01.349Z,4.86
2023-02-05T00:33:27.874Z,4.83
2023-02-05T00:35:54.369Z,4.80
2023-02-05T00:38:20.865Z,4.83
2023-02-05T00:40:47.491Z,4.82
2023-02-05T00:43:13.960Z,4.84
2023-02-05T00:45:40.451Z,4.82
2023-02-05T00:48:07.846Z,4.80
2023-02-05T00:50:35.212Z,4.81
2023-02-05T00:53:02.220Z,4.79
2023-02-05T00:55:28.819Z,4.79
2023-02-05T00:57:55.606Z,4.81
2023-02-05T01:00:22.515Z,4.81
2023-02-05T01:02:49.182Z,4.83
2023-02-05T01:05:15.801Z,4.78
2023-02-05T01:07:42.346Z,4.76
2023-02-05T01:10:09.164Z,4.80
2023-02-05T01:12:35.787Z,4.79
2023-02-05T01:15:05.305Z,4.79
2023-02-05T01:17:31.859Z,4.76
2023-02-05T01:19:58.536Z,4.74
2023-02-05T01:22:25.143Z,4.76
2023-02-05T01:24:51.749Z,4.72
2023-02-05T01:27:18.381Z,4.70
2023-02-05T01:29:45.015Z,4.71
2023-02-05T01:32:11.568Z,4.72
2023-02-05T01:34:38.294Z,4.72
2023-02-05T01:37:04.874Z,4.74
2023-02-05T01:39:31.509Z,4.67
2023-02-05T01:41:58.064Z,4.65
2023-02-05T01:44:26.178Z,4.68
2023-02-05T01:46:54.285Z,4.72
2023-02-05T01:49:28.383Z,4.69
2023-02-05T01:51:58.391Z,4.69
2023-02-05T01:54:28.489Z,4.69
2023-02-05T01:57:03.516Z,4.73
2023-02-05T01:59:33.962Z,4.72
2023-02-05T02:02:01.947Z,4.75
2023-02-05T02:04:34.221Z,4.74
2023-02-05T02:07:03.711Z,4.73
2023-02-05T02:09:31.086Z,4.72
2023-02-05T02:12:00.372Z,4.67
2023-02-05T02:14:31.127Z,4.66
2023-02-05T02:17:01.114Z,4.65
2023-02-05T02:19:52.801Z,4.64
2023-02-05T02:22:28.779Z,4.64
2023-02-05T02:25:32.729Z,4.67
2023-02-05T02:28:02.874Z,4.68
2023-02-05T02:30:48.260Z,4.78
2023-02-05T02:33:36.186Z,4.82
2023-02-05T02:36:22.763Z,4.83
2023-02-05T02:39:06.815Z,4.91
2023-02-05T02:41:45.497Z,4.93
2023-02-05T02:44:16.966Z,4.95
2023-02-05T02:46:48.491Z,4.99
2023-02-05T02:49:20.505Z,5.04
2023-02-05T02:51:49.956Z,5.07
2023-02-05T02:54:20.723Z,5.08
2023-02-05T02:56:51.158Z,5.08
2023-02-05T02:59:19.976Z,5.07
2023-02-05T03:01:54.055Z,5.12
2023-02-05T03:04:37.089Z,5.16
2023-02-05T03:07:13.416Z,5.21
2023-02-05T03:09:54.545Z,5.26
2023-02-05T03:12:21.201Z,5.28
2023-02-05T03:14:47.766Z,5.35
2023-02-05T03:17:18.746Z,5.43
2023-02-05T03:19:48.578Z,5.46
2023-02-05T03:22:15.050Z,5.50
2023-02-05T03:24:42.413Z,5.54
2023-02-05T03:27:09.872Z,5.55
2023-02-05T03:29:44.745Z,5.64
2023-02-05T03:32:21.462Z,5.65
2023-02-05T03:34:57.095Z,5.69
2023-02-05T03:37:26.415Z,5.68
2023-02-05T03:39:55.804Z,5.70
2023-02-05T03:42:34.701Z,5.70
2023-02-05T03:45:19.872Z,5.72
2023-02-05T03:48:20.245Z,5.77
2023-02-05T03:50:53.557Z,5.76
2023-02-05T03:53:38.786Z,5.73
2023-02-05T03:56:14.344Z,5.76
2023-02-05T03:58:46.265Z,5.75
2023-02-05T04:01:13.469Z,5.76
2023-02-05T04:03:40.738Z,5.79
2023-02-05T04:06:08.017Z,5.80
2023-02-05T04:08:34.554Z,5.82
2023-02-05T04:11:01.471Z,5.82
2023-02-05T04:13:28.263Z,5.82
2023-02-05T04:15:54.769Z,5.82
2023-02-05T04:18:21.307Z,5.91
2023-02-05T04:20:47.832Z,5.86
2023-02-05T04:23:14.529Z,5.85
2023-02-05T04:25:41.567Z,5.83
2023-02-05T04:28:10.310Z,5.86
2023-02-05T04:30:37.001Z,5.84
2023-02-05T04:33:05.076Z,5.81
2023-02-05T04:35:31.935Z,5.84
2023-02-05T04:37:58.533Z,5.88
2023-02-05T04:40:25.225Z,5.87
2023-02-05T04:42:51.828Z,5.84
2023-02-05T04:45:18.516Z,5.85
2023-02-05T04:47:44.999Z,5.83
2023-02-05T04:50:11.651Z,5.84
2023-02-05T04:52:38.182Z,5.84
2023-02-05T04:55:05.156Z,5.80
2023-02-05T04:57:31.960Z,5.81
2023-02-05T04:59:58.523Z,5.78
2023-02-05T05:02:25.545Z,5.80
2023-02-05T05:04:52.111Z,5.85
2023-02-05T05:07:18.673Z,5.82
2023-02-05T05:09:45.185Z,5.84
2023-02-05T05:12:11.725Z,5.81
2023-02-05T05:14:38.713Z,5.87
2023-02-05T05:17:05.348Z,5.84
2023-02-05T05:19:32.032Z,5.82
2023-02-05T05:21:59.339Z,5.83
2023-02-05T05:24:25.999Z,5.88
2023-02-05T05:26:52.510Z,5.85
2023-02-05T05:29:18.983Z,5.89
2023-02-05T05:31:45.609Z,5.86
2023-02-05T05:34:12.144Z,5.88
2023-02-05T05:36:43.379Z,5.93
2023-02-05T05:39:28.823Z,5.90
2023-02-05T05:42:13.662Z,5.90
2023-02-05T05:44:40.254Z,5.87
2023-02-05T05:47:06.780Z,5.86
2023-02-05T05:49:33.566Z,5.88
2023-02-05T05:52:00.049Z,5.89
2023-02-05T05:54:26.543Z,5.90
2023-02-05T05:56:53.076Z,5.87
2023-02-05T05:59:19.585Z,5.84
2023-02-05T06:01:46.068Z,5.85
2023-02-05T06:04:12.581Z,5.85
2023-02-05T06:06:39.167Z,5.89
2023-02-05T06:09:05.695Z,5.89
2023-02-05T06:11:32.525Z,5.88
2023-02-05T06:13:59.105Z,5.87
2023-02-05T06:16:25.787Z,5.85
2023-02-05T06:18:52.369Z,5.91
2023-02-05T06:21:18.886Z,5.89
2023-02-05T06:23:45.362Z,5.89
2023-02-05T06:26:12.083Z,5.91
2023-02-05T06:28:38.560Z,5.91
2023-02-05T06:31:06.499Z,5.89
2023-02-05T06:33:33.507Z,5.94
2023-02-05T06:36:00.007Z,5.94
2023-02-05T06:38:26.540Z,5.94
2023-02-05T06:40:53.058Z,5.95
2023-02-05T06:43:19.614Z,5.94
2023-02-05T06:45:46.198Z,5.94
2023-02-05T06:48:13.045Z,5.94
2023-02-05T06:50:39.579Z,5.97
2023-02-05T06:53:06.082Z,5.94
2023-02-05T06:55:33.303Z,5.94
2023-02-05T06:58:00.167Z,5.96
2023-02-05T07:00:27.012Z,5.95
2023-02-05T07:02:55.104Z,5.92
2023-02-05T07:05:21.731Z,5.93
2023-02-05T07:07:49.851Z,5.95
2023-02-05T07:10:16.710Z,5.95
2023-02-05T07:12:43.380Z,5.95
2023-02-05T07:15:10.141Z,5.97
2023-02-05T07:17:37.330Z,5.98
2023-02-05T07:20:04.228Z,5.94
2023-02-05T07:22:30.785Z,5.94
2023-02-05T07:24:57.867Z,5.98
2023-02-05T07:27:24.431Z,6.02
2023-02-05T07:29:51.032Z,5.95
2023-02-05T07:32:17.534Z,5.98
2023-02-05T07:34:44.028Z,5.97
2023-02-05T07:37:13.446Z,5.99
2023-02-05T07:39:40.290Z,6.02
2023-02-05T07:42:06.860Z,6.07
2023-02-05T07:44:33.838Z,6.06
2023-02-05T07:47:00.362Z,6.13
2023-02-05T07:49:27.282Z,6.11
2023-02-05T07:51:53.771Z,6.09
2023-02-05T07:54:20.284Z,6.11
2023-02-05T07:56:46.891Z,6.10
2023-02-05T07:59:13.498Z,6.11
2023-02-05T08:01:40.128Z,6.06
2023-02-05T08:04:06.634Z,6.08
2023-02-05T08:06:35.445Z,6.05
2023-02-05T08:09:02.251Z,6.11
2023-02-05T08:11:30.170Z,6.22
2023-02-05T08:13:58.306Z,6.23
2023-02-05T08:16:25.588Z,6.18
2023-02-05T08:18:52.194Z,6.17
2023-02-05T08:21:19.449Z,6.15
2023-02-05T08:23:45.925Z,6.22
2023-02-05T08:26:13.478Z,6.19
2023-02-05T08:28:40.003Z,6.30
2023-02-05T08:31:15.326Z,6.19
2023-02-05T08:33:42.020Z,6.31
2023-02-05T08:36:09.631Z,6.34
2023-02-05T08:38:36.151Z,6.21
2023-02-05T08:41:12.935Z,6.18
2023-02-05T08:43:44.776Z,6.25
2023-02-05T08:46:13.967Z,6.22
2023-02-05T08:48:40.747Z,6.39
2023-02-05T08:51:09.796Z,6.32
2023-02-05T08:53:36.440Z,6.35
2023-02-05T08:56:05.408Z,6.28
2023-02-05T08:58:33.624Z,6.34
2023-02-05T09:01:05.781Z,6.22
2023-02-05T09:03:32.985Z,6.25
2023-02-05T09:06:00.790Z,6.40
2023-02-05T09:08:29.842Z,6.45
2023-02-05T09:10:57.528Z,6.40
2023-02-05T09:13:25.067Z,6.47
2023-02-05T09:15:51.692Z,6.53
2023-02-05T09:18:18.229Z,6.40
2023-02-05T09:20:46.696Z,6.47
2023-02-05T09:23:15.294Z,6.51
2023-02-05T09:25:43.032Z,6.57
2023-02-05T09:28:12.377Z,6.65
2023-02-05T09:30:40.646Z,6.56
2023-02-05T09:33:07.377Z,6.63
2023-02-05T09:35:35.335Z,6.73
2023-02-05T09:38:03.546Z,6.67
2023-02-05T09:40:35.938Z,6.64
2023-02-05T09:43:32.357Z,6.76
2023-02-05T09:46:10.233Z,6.72
2023-02-05T09:49:02.685Z,6.75
2023-02-05T09:51:38.812Z,6.78
2023-02-05T09:54:16.006Z,6.86
2023-02-05T09:56:44.988Z,6.82
2023-02-05T09:59:20.402Z,6.84
2023-02-05T10:01:52.034Z,6.77
2023-02-05T10:04:19.358Z,6.73
2023-02-05T10:06:53.807Z,6.75
2023-02-05T10:09:38.343Z,6.88
2023-02-05T10:12:19.189Z,6.96
2023-02-05T10:15:04.445Z,6.96
2023-02-05T10:17:30.931Z,7.01
2023-02-05T10:20:54.754Z,7.02
2023-02-05T10:23:23.949Z,7.10
2023-02-05T10:25:59.067Z,7.23
2023-02-05T10:28:38.072Z,7.35
2023-02-05T10:31:08.087Z,7.31
2023-02-05T10:33:43.303Z,7.26
2023-02-05T10:36:11.469Z,7.31
2023-02-05T10:38:46.020Z,7.33
2023-02-05T10:41:20.241Z,7.28
2023-02-05T10:43:59.961Z,7.37
2023-02-05T10:46:33.470Z,7.52
2023-02-05T10:49:08.727Z,7.62
2023-02-05T10:51:41.606Z,7.77
2023-02-05T10:54:20.775Z,7.55
2023-02-05T10:56:48.226Z,7.60
2023-02-05T10:59:21.929Z,7.79
2023-02-05T11:01:49.655Z,7.79
2023-02-05T11:04:19.906Z,7.75
2023-02-05T11:06:50.625Z,7.82
2023-02-05T11:09:26.305Z,7.70
2023-02-05T11:11:55.054Z,7.90
2023-02-05T11:14:38.054Z,7.82
2023-02-05T11:17:08.609Z,7.85
2023-02-05T11:19:36.208Z,7.90
2023-02-05T11:22:04.813Z,7.87
2023-02-05T11:24:36.552Z,7.81
2023-02-05T11:27:27.000Z,7.80
2023-02-05T11:29:55.595Z,7.88
2023-02-05T11:32:31.309Z,7.89
2023-02-05T11:35:22.136Z,8.13
2023-02-05T11:37:59.671Z,7.93
2023-02-05T11:40:31.046Z,7.85
2023-02-05T11:43:17.685Z,7.94
2023-02-05T11:45:50.647Z,8.10
2023-02-05T11:48:41.143Z,8.16
2023-02-05T11:51:29.402Z,8.17
2023-02-05T11:53:59.463Z,8.33
2023-02-05T11:56:26.513Z,8.09
2023-02-05T11:59:06.882Z,8.15
2023-02-05T12:01:35.592Z,8.11
2023-02-05T12:04:15.958Z,8.18
2023-02-05T12:06:46.248Z,8.10
2023-02-05T12:09:19.588Z,8.24
2023-02-05T12:12:03.564Z,8.33
2023-02-05T12:14:54.949Z,8.34
2023-02-05T12:17:31.035Z,8.38
2023-02-05T12:20:28.836Z,8.27
2023-02-05T12:23:04.059Z,8.17
2023-02-05T12:25:45.643Z,8.29
2023-02-05T12:29:10.395Z,8.40
2023-02-05T12:32:17.376Z,8.29
2023-02-05T12:35:13.953Z,8.36
2023-02-05T12:37:59.185Z,8.26
2023-02-05T12:40:53.319Z,8.36
2023-02-05T12:43:22.432Z,8.45
2023-02-05T12:46:00.582Z,8.54
2023-02-05T12:48:54.251Z,8.53
2023-02-05T12:51:41.237Z,8.35
2023-02-05T12:54:15.444Z,8.46
2023-02-05T12:57:11.912Z,8.52
2023-02-05T12:59:50.779Z,8.47
2023-02-05T13:02:19.994Z,8.39
2023-02-05T13:04:53.353Z,8.69
2023-02-05T13:07:31.591Z,8.78
2023-02-05T13:10:01.981Z,8.87
2023-02-05T13:12:34.067Z,8.48
2023-02-05T13:15:05.413Z,8.63
2023-02-05T13:17:41.014Z,8.62
2023-02-05T13:20:48.131Z,8.51
2023-02-05T13:23:33.801Z,8.74
2023-02-05T13:26:20.937Z,8.69
2023-02-05T13:28:52.979Z,8.75
2023-02-05T13:31:49.030Z,8.73
2023-02-05T13:34:17.764Z,8.71
2023-02-05T13:37:01.144Z,8.73
2023-02-05T13:39:36.880Z,8.89
2023-02-05T13:42:25.043Z,8.83
2023-02-05T13:45:14.001Z,8.79
2023-02-05T13:47:49.782Z,8.67
2023-02-05T13:51:05.110Z,8.78
2023-02-05T13:53:34.337Z,8.92
2023-02-05T13:56:24.587Z,8.85
2023-02-05T13:58:59.268Z,8.69
2023-02-05T14:01:31.797Z,8.91
2023-02-05T14:04:26.920Z,8.83
2023-02-05T14:07:01.281Z,8.78
2023-02-05T14:09:38.754Z,8.80
2023-02-05T14:12:08.910Z,8.77
2023-02-05T14:14:45.124Z,8.83
2023-02-05T14:17:33.139Z,8.78
2023-02-05T14:20:01.139Z,8.80
2023-02-05T14:22:38.252Z,8.83
2023-02-05T14:25:38.166Z,8.87
2023-02-05T14:28:16.822Z,8.89
2023-02-05T14:30:50.606Z,8.97
2023-02-05T14:33:35.962Z,9.09
2023-02-05T14:36:20.656Z,9.08
2023-02-05T14:38:59.344Z,9.03
2023-02-05T14:41:50.556Z,9.01
2023-02-05T14:44:25.825Z,8.94
2023-02-05T14:46:59.680Z,9.04
2023-02-05T14:49:36.750Z,9.28
2023-02-05T14:52:21.330Z,9.13
2023-02-05T14:54:52.107Z,9.02
2023-02-05T14:57:25.384Z,8.96
2023-02-05T15:00:00.245Z,8.97
2023-02-05T15:02:57.934Z,8.79
2023-02-05T15:05:30.133Z,8.88
2023-02-05T15:08:16.882Z,8.88
2023-02-05T15:11:25.686Z,8.88
2023-02-05T15:14:24.420Z,8.95
2023-02-05T15:17:06.233Z,8.84
2023-02-05T15:19:46.560Z,8.90
2023-02-05T15:22:35.155Z,9.03
2023-02-05T15:25:04.186Z,9.12
2023-02-05T15:27:42.373Z,9.00
2023-02-05T15:30:14.537Z,9.04
2023-02-05T15:32:50.710Z,8.96
2023-02-05T15:35:21.525Z,8.92
2023-02-05T15:37:50.765Z,8.95
2023-02-05T15:40:23.457Z,8.91
2023-02-05T15:42:55.549Z,8.96
2023-02-05T15:45:26.757Z,8.81
2023-02-05T15:48:05.249Z,8.89
2023-02-05T15:50:34.217Z,8.83
2023-02-05T15:53:01.717Z,8.86
2023-02-05T15:55:29.274Z,8.85
2023-02-05T15:58:02.151Z,8.85
2023-02-05T16:00:31.540Z,8.88
2023-02-05T16:03:02.656Z,8.84
2023-02-05T16:05:31.677Z,8.83
2023-02-05T16:08:01.860Z,8.80
2023-02-05T16:10:31.131Z,8.83
2023-02-05T16:13:00.237Z,8.75
2023-02-05T16:15:35.165Z,8.76
2023-02-05T16:18:06.537Z,8.80
2023-02-05T16:20:37.318Z,8.87
2023-02-05T16:23:08.254Z,8.81
2023-02-05T16:25:42.458Z,8.75
2023-02-05T16:28:19.858Z,8.71
2023-02-05T16:30:48.789Z,8.69
2023-02-05T16:33:21.379Z,8.79
2023-02-05T16:35:48.801Z,8.71
2023-02-05T16:38:17.917Z,8.70
2023-02-05T16:40:48.923Z,8.66
2023-02-05T16:43:30.073Z,8.65
2023-02-05T16:46:08.384Z,8.63
2023-02-05T16:48:41.714Z,8.65
2023-02-05T16:51:28.448Z,8.66
2023-02-05T16:53:54.952Z,8.62
2023-02-05T16:56:25.600Z,8.63
2023-02-05T16:58:56.481Z,8.60
2023-02-05T17:01:27.819Z,8.60
2023-02-05T17:03:55.485Z,8.59
2023-02-05T17:06:22.934Z,8.55
2023-02-05T17:08:58.720Z,8.56
2023-02-05T17:11:39.744Z,8.54
2023-02-05T17:14:24.964Z,8.60
2023-02-05T17:16:58.224Z,8.59
2023-02-05T17:19:32.506Z,8.52
2023-02-05T17:22:14.392Z,8.46
2023-02-05T17:24:46.191Z,8.53
2023-02-05T17:27:18.912Z,8.50
2023-02-05T17:29:46.164Z,8.43
2023-02-05T17:32:17.765Z,8.48
2023-02-05T17:34:45.241Z,8.44
2023-02-05T17:37:12.372Z,8.40
2023-02-05T17:39:39.656Z,8.40
2023-02-05T17:42:09.821Z,8.41
2023-02-05T17:44:36.805Z,8.40
2023-02-05T17:47:04.574Z,8.37
2023-02-05T17:49:31.205Z,8.36
2023-02-05T17:51:57.678Z,8.37
2023-02-05T17:54:26.023Z,8.39
2023-02-05T17:56:56.746Z,8.39
2023-02-05T17:59:25.800Z,8.36
2023-02-05T18:01:53.445Z,8.37
2023-02-05T18:04:20.194Z,8.37
2023-02-05T18:06:50.854Z,8.37
2023-02-05T18:09:18.740Z,8.33
2023-02-05T18:11:45.423Z,8.32
2023-02-05T18:14:12.648Z,8.32
2023-02-05T18:16:39.782Z,8.31
2023-02-05T18:19:06.403Z,8.33
2023-02-05T18:21:33.091Z,8.33
2023-02-05T18:23:59.622Z,8.28
2023-02-05T18:26:27.108Z,8.29
2023-02-05T18:28:54.340Z,8.28
2023-02-05T18:31:20.942Z,8.29
2023-02-05T18:33:49.065Z,8.34
2023-02-05T18:36:16.163Z,8.30
2023-02-05T18:38:43.753Z,8.33
2023-02-05T18:41:14.583Z,8.34
2023-02-05T18:43:41.580Z,8.30
2023-02-05T18:46:12.471Z,8.30
2023-02-05T18:48:40.843Z,8.32
2023-02-05T18:51:09.570Z,8.32
2023-02-05T18:53:39.138Z,8.29
2023-02-05T18:56:21.569Z,8.29
2023-02-05T18:58:54.143Z,8.29
2023-02-05T19:01:20.853Z,8.29
2023-02-05T19:03:47.979Z,8.29
2023-02-05T19:06:17.028Z,8.28
2023-02-05T19:08:44.007Z,8.23
2023-02-05T19:11:16.370Z,8.26
2023-02-05T19:13:43.019Z,8.24
2023-02-05T19:16:15.100Z,8.24
2023-02-05T19:18:43.460Z,8.23
2023-02-05T19:21:18.143Z,8.24
2023-02-05T19:23:48.869Z,8.27
2023-02-05T19:26:18.372Z,8.26
2023-02-05T19:28:47.135Z,8.21
2023-02-05T19:31:15.207Z,8.22
2023-02-05T19:33:42.296Z,8.19
2023-02-05T19:36:10.530Z,8.18
2023-02-05T19:38:39.199Z,8.20
2023-02-05T19:41:18.223Z,8.14
2023-02-05T19:43:51.255Z,8.16
2023-02-05T19:46:25.879Z,8.18
2023-02-05T19:48:53.111Z,8.13
2023-02-05T19:51:20.085Z,8.13
2023-02-05T19:53:47.512Z,8.16
2023-02-05T19:56:22.431Z,8.12
2023-02-05T19:58:51.858Z,8.08
2023-02-05T20:01:25.120Z,8.07
2023-02-05T20:03:56.976Z,8.10
2023-02-05T20:06:26.648Z,8.05
2023-02-05T20:08:53.215Z,8.07
2023-02-05T20:11:20.533Z,8.07
2023-02-05T20:13:47.917Z,8.11
2023-02-05T20:16:18.612Z,8.11
2023-02-05T20:18:46.459Z,8.11
2023-02-05T20:21:20.381Z,8.10
2023-02-05T20:23:48.245Z,8.11
2023-02-05T20:26:18.838Z,8.14
2023-02-05T20:29:05.870Z,8.14
2023-02-05T20:31:38.006Z,8.12
2023-02-05T20:34:07.216Z,8.15
2023-02-05T20:36:35.007Z,8.13
2023-02-05T20:39:07.479Z,8.11
2023-02-05T20:41:34.533Z,8.17
2023-02-05T20:44:01.907Z,8.16
2023-02-05T20:46:29.130Z,8.14
2023-02-05T20:48:55.886Z,8.11
2023-02-05T20:51:23.350Z,8.11
2023-02-05T20:53:50.292Z,8.09
2023-02-05T20:56:19.858Z,8.10
2023-02-05T20:58:49.595Z,8.11
2023-02-05T21:01:18.872Z,8.08
2023-02-05T21:03:48.620Z,8.04
2023-02-05T21:06:16.369Z,8.03
2023-02-05T21:08:46.307Z,8.05
2023-02-05T21:11:16.688Z,8.02
2023-02-05T21:13:45.656Z,8.01
2023-02-05T21:16:13.863Z,8.00
2023-02-05T21:18:43.511Z,8.02
2023-02-05T21:21:14.235Z,8.01
2023-02-05T21:23:41.039Z,7.99
2023-02-05T21:26:08.436Z,7.98
2023-02-05T21:28:35.077Z,7.98
2023-02-05T21:31:08.843Z,7.98
2023-02-05T21:33:36.542Z,7.98
2023-02-05T21:36:05.110Z,7.98
2023-02-05T21:38:34.960Z,7.98
2023-02-05T21:41:09.816Z,7.99
2023-02-05T21:43:36.703Z,7.98
2023-02-05T21:46:04.847Z,7.99
2023-02-05T21:48:31.454Z,7.92
2023-02-05T21:51:00.373Z,7.93
2023-02-05T21:53:28.118Z,8.01
2023-02-05T21:55:54.983Z,7.85
2023-02-05T21:58:21.960Z,7.84
2023-02-05T22:00:48.521Z,7.82
2023-02-05T22:03:15.034Z,7.81
2023-02-05T22:05:41.540Z,7.80
2023-02-05T22:08:11.605Z,7.77
2023-02-05T22:10:38.503Z,7.77
2023-02-05T22:13:05.011Z,7.75
2023-02-05T22:15:31.788Z,7.73
2023-02-05T22:17:58.304Z,7.75
2023-02-05T22:20:24.886Z,7.76
2023-02-05T22:22:51.392Z,7.73
2023-02-05T22:25:18.082Z,7.73
2023-02-05T22:27:44.713Z,7.75
2023-02-05T22:30:11.770Z,7.72
2023-02-05T22:32:38.286Z,7.75
2023-02-05T22:35:05.132Z,7.71
2023-02-05T22:37:31.743Z,7.70
2023-02-05T22:39:58.200Z,7.68
2023-02-05T22:42:26.808Z,7.70
2023-02-05T22:44:54.402Z,7.72
2023-02-05T22:47:20.884Z,7.72
2023-02-05T22:49:47.396Z,7.67
2023-02-05T22:52:13.860Z,7.66
2023-02-05T22:54:40.368Z,7.65
2023-02-05T22:57:06.970Z,7.63
2023-02-05T22:59:33.991Z,7.62
2023-02-05T23:02:00.461Z,7.55
2023-02-05T23:04:27.009Z,7.57
2023-02-05T23:06:53.515Z,7.54
2023-02-05T23:09:20.082Z,7.54
2023-02-05T23:11:48.797Z,7.59
2023-02-05T23:14:17.113Z,7.55
2023-02-05T23:16:46.154Z,7.60
2023-02-05T23:19:18.486Z,7.60
2023-02-05T23:21:45.659Z,7.56
2023-02-05T23:24:12.848Z,7.43
2023-02-05T23:26:44.300Z,7.37
2023-02-05T23:29:13.060Z,7.37
2023-02-05T23:31:40.571Z,7.32
2023-02-05T23:34:07.544Z,7.25
2023-02-05T23:36:34.576Z,7.34
2023-02-05T23:39:01.261Z,7.29
2023-02-05T23:41:37.130Z,7.25
2023-02-05T23:44:08.539Z,7.32
2023-02-05T23:46:36.391Z,7.24
2023-02-05T23:49:04.072Z,7.22
2023-02-05T23:51:30.692Z,7.24
2023-02-05T23:53:57.380Z,7.18
2023-02-05T23:56:23.848Z,7.14
2023-02-05T23:58:50.377Z,7.14
